createdAt,value
2022-09-02T00:02:05.107Z,15.10
2022-09-02T00:04:35.745Z,14.13
2022-09-02T00:07:03.291Z,18.40
2022-09-02T00:09:31.063Z,16.13
2022-09-02T00:11:59.543Z,17.38
2022-09-02T00:14:35.311Z,17.17
2022-09-02T00:17:03.610Z,14.30
2022-09-02T00:19:35.245Z,18.80
2022-09-02T00:22:07.064Z,15.88
2022-09-02T00:24:51.200Z,15.52
2022-09-02T00:27:18.778Z,16.90
2022-09-02T00:29:47.027Z,14.80
2022-09-02T00:32:14.375Z,17.95
2022-09-02T00:34:44.024Z,17.90
2022-09-02T00:37:14.557Z,20.23
2022-09-02T00:39:42.486Z,19.50
2022-09-02T00:42:12.254Z,19.65
2022-09-02T00:44:39.728Z,15.70
2022-09-02T00:47:07.185Z,15.60
2022-09-02T00:49:39.238Z,17.08
2022-09-02T00:52:15.310Z,16.95
2022-09-02T00:54:50.249Z,19.00
2022-09-02T00:57:22.378Z,14.75
2022-09-02T01:00:13.420Z,15.88
2022-09-02T01:02:42.208Z,15.35
2022-09-02T01:05:13.973Z,15.02
2022-09-02T01:07:43.474Z,19.02
2022-09-02T01:10:22.360Z,17.90
2022-09-02T01:12:49.809Z,19.13
2022-09-02T01:15:17.278Z,21.52
2022-09-02T01:17:49.136Z,18.98
2022-09-02T01:20:25.607Z,20.38
2022-09-02T01:22:55.091Z,21.05
2022-09-02T01:25:29.140Z,18.77
2022-09-02T01:28:09.133Z,18.85
2022-09-02T01:30:39.921Z,17.75
2022-09-02T01:33:07.364Z,17.55
2022-09-02T01:35:35.095Z,17.90
2022-09-02T01:38:02.956Z,18.33
2022-09-02T01:40:31.465Z,19.73
2022-09-02T01:43:03.115Z,13.98
2022-09-02T01:45:30.629Z,15.88
2022-09-02T01:47:58.006Z,12.05
2022-09-02T01:50:25.774Z,14.18
2022-09-02T01:52:56.029Z,10.98
2022-09-02T01:55:23.525Z,12.43
2022-09-02T01:57:52.046Z,13.30
2022-09-02T02:00:20.684Z,16.45
2022-09-02T02:02:48.067Z,12.35
2022-09-02T02:05:17.542Z,9.88
2022-09-02T02:07:46.786Z,14.80
2022-09-02T02:10:16.806Z,11.50
2022-09-02T02:12:46.529Z,14.35
2022-09-02T02:15:18.062Z,11.75
2022-09-02T02:17:45.961Z,11.68
2022-09-02T02:20:15.327Z,11.85
2022-09-02T02:22:44.111Z,10.43
2022-09-02T02:25:15.226Z,11.98
2022-09-02T02:27:44.184Z,12.20
2022-09-02T02:30:17.674Z,10.57
2022-09-02T02:32:47.475Z,10.95
2022-09-02T02:35:19.525Z,10.10
2022-09-02T02:37:51.403Z,12.75
2022-09-02T02:40:21.891Z,9.93
2022-09-02T02:42:53.587Z,10.98
2022-09-02T02:45:23.990Z,11.38
2022-09-02T02:47:52.975Z,12.20
2022-09-02T02:50:23.508Z,11.77
2022-09-02T02:52:54.055Z,13.65
2022-09-02T02:55:24.549Z,11.73
2022-09-02T02:57:52.500Z,12.57
2022-09-02T03:00:25.673Z,15.15
2022-09-02T03:03:00.733Z,12.10
2022-09-02T03:05:29.628Z,10.00
2022-09-02T03:07:59.486Z,11.02
2022-09-02T03:10:27.507Z,11.57
2022-09-02T03:12:55.382Z,11.65
2022-09-02T03:15:23.238Z,11.95
2022-09-02T03:17:53.551Z,10.75
2022-09-02T03:20:22.512Z,11.88
2022-09-02T03:22:56.654Z,12.35
2022-09-02T03:25:25.196Z,10.57
2022-09-02T03:27:56.329Z,11.80
2022-09-02T03:30:26.753Z,10.68
2022-09-02T03:32:56.892Z,10.98
2022-09-02T03:35:27.953Z,12.18
2022-09-02T03:37:55.869Z,13.00
2022-09-02T03:40:27.524Z,12.00
2022-09-02T03:43:00.210Z,14.45
2022-09-02T03:45:32.673Z,12.45
2022-09-02T03:48:04.897Z,14.52
2022-09-02T03:50:40.220Z,14.25
2022-09-02T03:53:19.360Z,15.82
2022-09-02T03:55:51.381Z,18.38
2022-09-02T03:58:24.492Z,13.20
2022-09-02T04:00:57.364Z,11.60
2022-09-02T04:03:26.123Z,14.38
2022-09-02T04:05:53.760Z,12.50
2022-09-02T04:08:24.643Z,14.15
2022-09-02T04:10:54.142Z,13.68
2022-09-02T04:13:21.665Z,12.30
2022-09-02T04:15:49.692Z,11.68
2022-09-02T04:18:21.501Z,11.73
2022-09-02T04:20:50.496Z,8.45
2022-09-02T04:23:19.087Z,8.75
2022-09-02T04:25:47.507Z,10.63
2022-09-02T04:28:17.266Z,12.43
2022-09-02T04:30:45.008Z,10.63
2022-09-02T04:33:14.329Z,7.40
2022-09-02T04:35:45.582Z,8.45
2022-09-02T04:38:17.137Z,9.65
2022-09-02T04:40:46.521Z,6.70
2022-09-02T04:43:17.780Z,8.82
2022-09-02T04:45:47.864Z,7.57
2022-09-02T04:48:19.255Z,7.40
2022-09-02T04:50:49.915Z,8.25
2022-09-02T04:53:18.135Z,8.63
2022-09-02T04:55:45.792Z,9.00
2022-09-02T04:58:16.545Z,10.85
2022-09-02T05:00:45.282Z,7.93
2022-09-02T05:03:15.103Z,6.30
2022-09-02T05:05:44.648Z,9.68
2022-09-02T05:08:13.507Z,7.55
2022-09-02T05:10:44.025Z,6.57
2022-09-02T05:13:11.658Z,6.60
2022-09-02T05:15:41.150Z,8.93
2022-09-02T05:18:10.964Z,5.82
2022-09-02T05:20:42.784Z,4.93
2022-09-02T05:23:12.827Z,7.95
2022-09-02T05:25:45.085Z,5.72
2022-09-02T05:28:13.207Z,7.28
2022-09-02T05:30:42.831Z,5.30
2022-09-02T05:33:13.525Z,8.55
2022-09-02T05:35:45.824Z,8.80
2022-09-02T05:38:17.528Z,7.80
2022-09-02T05:40:46.860Z,4.85
2022-09-02T05:43:14.432Z,5.40
2022-09-02T05:45:42.159Z,7.57
2022-09-02T05:48:45.629Z,6.05
2022-09-02T05:51:12.999Z,7.00
2022-09-02T05:53:40.428Z,9.48
2022-09-02T05:56:09.795Z,13.80
2022-09-02T05:58:37.191Z,8.43
2022-09-02T06:01:10.526Z,6.25
2022-09-02T06:03:39.015Z,7.53
2022-09-02T06:06:10.906Z,5.78
2022-09-02T06:08:40.435Z,6.55
2022-09-02T06:11:10.959Z,5.80
2022-09-02T06:13:41.735Z,7.53
2022-09-02T06:16:10.835Z,6.85
2022-09-02T06:18:42.867Z,7.95
2022-09-02T06:21:12.419Z,7.22
2022-09-02T06:23:45.133Z,10.82
2022-09-02T06:26:16.781Z,10.52
2022-09-02T06:28:45.970Z,8.00
2022-09-02T06:31:21.840Z,9.18
2022-09-02T06:33:53.177Z,5.85
2022-09-02T06:36:23.595Z,8.57
2022-09-02T06:38:59.463Z,10.00
2022-09-02T06:41:30.530Z,7.15
2022-09-02T06:44:03.266Z,8.98
2022-09-02T06:46:36.276Z,7.25
2022-09-02T06:49:06.092Z,15.43
2022-09-02T06:51:41.245Z,12.20
2022-09-02T06:54:14.066Z,14.68
2022-09-02T06:56:47.277Z,14.80
2022-09-02T06:59:20.358Z,15.70
2022-09-02T07:01:52.015Z,11.07
2022-09-02T07:04:40.475Z,12.50
2022-09-02T07:07:09.917Z,12.70
2022-09-02T07:09:42.957Z,12.88
2022-09-02T07:12:17.026Z,15.50
2022-09-02T07:14:51.411Z,12.48
2022-09-02T07:17:25.276Z,12.30
2022-09-02T07:20:00.514Z,16.23
2022-09-02T07:22:31.554Z,12.98
2022-09-02T07:25:06.967Z,10.13
2022-09-02T07:27:36.341Z,16.40
2022-09-02T07:30:06.982Z,15.48
2022-09-02T07:32:38.474Z,15.48
2022-09-02T07:35:09.957Z,18.02
2022-09-02T07:37:38.286Z,19.98
2022-09-02T07:40:10.587Z,13.45
2022-09-02T07:42:40.007Z,19.30
2022-09-02T07:45:10.186Z,14.93
2022-09-02T07:47:40.342Z,15.27
2022-09-02T07:50:20.297Z,16.88
2022-09-02T07:52:57.572Z,11.52
2022-09-02T07:55:27.146Z,10.63
2022-09-02T07:57:55.409Z,10.40
2022-09-02T08:00:27.863Z,14.55
2022-09-02T08:03:03.141Z,11.07
2022-09-02T08:05:39.642Z,13.82
2022-09-02T08:08:08.292Z,18.48
2022-09-02T08:10:36.523Z,13.45
2022-09-02T08:13:06.656Z,13.35
2022-09-02T08:15:36.291Z,10.48
2022-09-02T08:18:04.720Z,8.40
2022-09-02T08:20:32.184Z,13.80
2022-09-02T08:23:11.104Z,9.95
2022-09-02T08:25:41.072Z,9.80
2022-09-02T08:28:08.704Z,7.00
2022-09-02T08:30:36.245Z,12.68
2022-09-02T08:33:03.596Z,9.10
2022-09-02T08:35:31.177Z,6.63
2022-09-02T08:37:59.966Z,8.68
2022-09-02T08:40:40.246Z,14.48
2022-09-02T08:43:26.199Z,14.82
2022-09-02T08:45:56.494Z,14.32
2022-09-02T08:48:41.388Z,7.85
2022-09-02T08:51:20.418Z,8.77
2022-09-02T08:54:08.522Z,5.78
2022-09-02T08:56:36.049Z,9.30
2022-09-02T08:59:05.009Z,9.10
2022-09-02T09:01:54.214Z,6.72
2022-09-02T09:05:01.349Z,7.35
2022-09-02T09:08:16.161Z,13.95
2022-09-02T09:11:10.907Z,14.65
2022-09-02T09:13:59.883Z,7.38
2022-09-02T09:16:48.934Z,14.68
2022-09-02T09:19:27.167Z,11.07
2022-09-02T09:21:56.246Z,7.53
2022-09-02T09:25:32.744Z,7.40
2022-09-02T09:28:49.051Z,12.73
2022-09-02T09:31:25.708Z,18.42
2022-09-02T09:34:07.636Z,8.70
2022-09-02T09:36:41.023Z,8.63
2022-09-02T09:39:18.783Z,10.98
2022-09-02T09:41:47.892Z,6.60
2022-09-02T09:44:48.352Z,11.90
2022-09-02T09:47:23.163Z,9.27
2022-09-02T09:49:53.232Z,6.70
2022-09-02T09:52:30.761Z,11.23
2022-09-02T09:55:24.978Z,6.60
2022-09-02T09:57:54.289Z,8.00
2022-09-02T10:00:35.178Z,6.15
2022-09-02T10:03:11.137Z,7.82
2022-09-02T10:08:16.234Z,6.60
2022-09-02T10:11:05.760Z,7.97
2022-09-02T10:13:35.491Z,6.43
2022-09-02T10:16:25.604Z,6.10
2022-09-02T10:19:04.861Z,9.88
2022-09-02T10:22:22.872Z,4.90
2022-09-02T10:25:05.306Z,11.57
2022-09-02T10:27:47.518Z,11.52
2022-09-02T10:30:21.703Z,5.57
2022-09-02T10:33:22.567Z,9.95
2022-09-02T10:36:04.053Z,8.50
2022-09-02T10:38:40.722Z,10.32
2022-09-02T10:41:34.994Z,6.70
2022-09-02T10:44:23.782Z,5.03
2022-09-02T10:46:54.399Z,4.55
2022-09-02T10:49:51.227Z,9.85
2022-09-02T10:52:58.395Z,5.65
2022-09-02T10:55:56.215Z,5.00
2022-09-02T10:58:38.722Z,4.05
2022-09-02T11:01:10.962Z,6.43
2022-09-02T11:04:08.278Z,3.90
2022-09-02T11:07:01.520Z,5.60
2022-09-02T11:09:41.833Z,5.47
2022-09-02T11:12:19.233Z,6.20
2022-09-02T11:15:06.989Z,3.95
2022-09-02T11:17:44.517Z,6.45
2022-09-02T11:20:14.894Z,4.43
2022-09-02T11:22:54.306Z,5.43
2022-09-02T11:25:30.802Z,7.47
2022-09-02T11:28:43.739Z,8.02
2022-09-02T11:31:39.369Z,11.05
2022-09-02T11:34:37.045Z,5.82
2022-09-02T11:37:11.054Z,4.10
2022-09-02T11:39:59.021Z,5.10
2022-09-02T11:42:43.675Z,3.97
2022-09-02T11:45:27.642Z,7.22
2022-09-02T11:48:29.658Z,4.95
2022-09-02T11:50:59.778Z,7.53
2022-09-02T11:53:32.063Z,4.00
2022-09-02T11:56:12.218Z,6.55
2022-09-02T11:58:49.834Z,5.40
2022-09-02T12:01:43.819Z,7.10
2022-09-02T12:07:09.839Z,8.20
2022-09-02T12:09:47.888Z,3.55
2022-09-02T12:12:37.654Z,3.05
2022-09-02T12:15:08.509Z,4.95
2022-09-02T12:17:40.594Z,2.90
2022-09-02T12:20:12.701Z,4.70
2022-09-02T12:22:42.910Z,4.70
2022-09-02T12:25:26.831Z,9.75
2022-09-02T12:28:27.677Z,5.17
2022-09-02T12:30:55.766Z,11.32
2022-09-02T12:33:40.280Z,7.22
2022-09-02T12:36:09.513Z,9.40
2022-09-02T12:38:41.494Z,13.15
2022-09-02T12:41:17.946Z,10.85
2022-09-02T12:44:05.486Z,13.73
2022-09-02T12:46:45.312Z,13.00
2022-09-02T12:49:38.668Z,16.02
2022-09-02T12:52:12.945Z,14.02
2022-09-02T12:54:40.273Z,7.90
2022-09-02T12:57:09.162Z,6.68
2022-09-02T12:59:39.439Z,10.25
2022-09-02T13:02:30.377Z,7.40
2022-09-02T13:05:22.607Z,13.57
2022-09-02T13:08:05.020Z,11.20
2022-09-02T13:10:57.941Z,11.75
2022-09-02T13:14:02.015Z,10.27
2022-09-02T13:16:47.656Z,9.70
2022-09-02T13:19:43.617Z,7.78
2022-09-02T13:22:44.300Z,7.13
2022-09-02T13:25:18.369Z,6.25
2022-09-02T13:28:35.798Z,5.25
2022-09-02T13:31:22.272Z,5.13
2022-09-02T13:34:14.024Z,5.72
2022-09-02T13:36:42.884Z,7.30
2022-09-02T13:39:21.638Z,5.60
2022-09-02T13:41:49.612Z,12.63
2022-09-02T13:44:31.878Z,5.07
2022-09-02T13:47:21.940Z,6.82
2022-09-02T13:49:52.300Z,5.90
2022-09-02T13:52:51.157Z,6.72
2022-09-02T13:55:14.747Z,5.85
2022-09-02T13:58:33.360Z,7.93
2022-09-02T14:01:26.467Z,4.70
2022-09-02T14:03:56.822Z,9.10
2022-09-02T14:06:28.919Z,7.38
2022-09-02T14:09:00.137Z,7.07
2022-09-02T14:11:29.073Z,6.00
2022-09-02T14:13:57.798Z,5.07
2022-09-02T14:16:35.262Z,5.85
2022-09-02T14:19:17.587Z,6.07
2022-09-02T14:21:56.893Z,3.72
2022-09-02T14:24:30.375Z,6.25
2022-09-02T14:26:59.526Z,4.88
2022-09-02T14:29:33.715Z,5.18
2022-09-02T14:32:23.057Z,5.90
2022-09-02T14:35:12.011Z,6.05
2022-09-02T14:37:59.452Z,5.50
2022-09-02T14:40:38.536Z,4.47
2022-09-02T14:43:13.566Z,3.10
2022-09-02T14:45:49.391Z,5.30
2022-09-02T14:48:26.415Z,2.83
2022-09-02T14:51:06.692Z,3.28
2022-09-02T14:53:37.937Z,6.28
2022-09-02T14:56:06.600Z,7.30
2022-09-02T14:58:34.035Z,4.28
2022-09-02T15:01:02.544Z,5.40
2022-09-02T15:03:32.523Z,6.63
2022-09-02T15:06:00.129Z,5.72
2022-09-02T15:08:28.417Z,9.45
2022-09-02T15:11:01.717Z,5.78
2022-09-02T15:13:35.904Z,4.97
2022-09-02T15:16:03.948Z,9.27
2022-09-02T15:18:31.414Z,7.65
2022-09-02T15:20:58.944Z,8.55
2022-09-02T15:23:28.638Z,9.55
2022-09-02T15:25:57.949Z,4.88
2022-09-02T15:28:27.436Z,8.77
2022-09-02T15:30:59.717Z,10.35
2022-09-02T15:33:27.702Z,9.23
2022-09-02T15:36:04.729Z,8.60
2022-09-02T15:38:38.426Z,10.60
2022-09-02T15:41:27.338Z,8.63
2022-09-02T15:43:58.463Z,8.23
2022-09-02T15:46:34.882Z,10.00
2022-09-02T15:49:06.480Z,7.32
2022-09-02T15:51:35.283Z,7.70
2022-09-02T15:54:05.730Z,3.70
2022-09-02T15:56:35.789Z,8.45
2022-09-02T15:59:12.074Z,6.85
2022-09-02T16:01:42.848Z,15.70
2022-09-02T16:04:11.584Z,5.75
2022-09-02T16:06:41.678Z,15.05
2022-09-02T16:09:11.242Z,10.35
2022-09-02T16:11:50.014Z,6.05
2022-09-02T16:14:20.741Z,4.43
2022-09-02T16:16:51.634Z,3.38
2022-09-02T16:19:30.047Z,4.30
2022-09-02T16:21:58.832Z,6.88
2022-09-02T16:24:26.806Z,5.45
2022-09-02T16:26:54.255Z,4.30
2022-09-02T16:29:21.730Z,4.03
2022-09-02T16:32:02.242Z,7.07
2022-09-02T16:34:38.703Z,3.78
2022-09-02T16:37:06.186Z,3.88
2022-09-02T16:39:34.127Z,6.32
2022-09-02T16:42:04.570Z,5.55
2022-09-02T16:44:34.289Z,6.78
2022-09-02T16:47:01.761Z,3.58
2022-09-02T16:49:29.244Z,5.03
2022-09-02T16:51:58.514Z,3.75
2022-09-02T16:54:31.228Z,3.42
2022-09-02T16:57:01.646Z,3.80
2022-09-02T16:59:29.360Z,3.10
2022-09-02T17:01:56.645Z,1.92
2022-09-02T17:04:24.835Z,2.33
2022-09-02T17:06:53.311Z,4.03
2022-09-02T17:09:21.266Z,3.40
2022-09-02T17:11:48.689Z,4.85
2022-09-02T17:14:17.486Z,7.20
2022-09-02T17:16:47.053Z,6.18
2022-09-02T17:19:21.884Z,6.35
2022-09-02T17:21:54.476Z,6.25
2022-09-02T17:24:24.687Z,9.48
2022-09-02T17:26:56.722Z,6.78
2022-09-02T17:32:19.019Z,7.22
2022-09-02T17:34:48.420Z,9.85
2022-09-02T17:37:15.897Z,31.55
2022-09-02T17:39:44.683Z,59.13
2022-09-02T17:42:14.887Z,5.63
2022-09-02T17:44:43.234Z,4.60
2022-09-02T17:47:15.084Z,5.40
2022-09-02T17:49:45.696Z,6.13
2022-09-02T17:52:19.017Z,5.88
2022-09-02T17:54:49.226Z,5.70
2022-09-02T17:57:29.274Z,5.30
2022-09-02T18:00:22.616Z,12.65
2022-09-02T18:03:14.032Z,5.82
2022-09-02T18:05:56.009Z,6.30
2022-09-02T18:08:39.542Z,7.47
2022-09-02T18:11:12.962Z,6.30
2022-09-02T18:13:56.917Z,6.95
2022-09-02T18:16:33.373Z,6.63
2022-09-02T18:19:30.270Z,10.25
2022-09-02T18:22:29.027Z,6.32
2022-09-02T18:25:13.258Z,9.00
2022-09-02T18:27:52.353Z,8.40
2022-09-02T18:30:25.963Z,8.40
2022-09-02T18:33:09.979Z,10.15
2022-09-02T18:36:15.252Z,9.63
2022-09-02T18:38:56.749Z,12.00
2022-09-02T18:42:06.603Z,9.10
2022-09-02T18:44:47.000Z,8.40
2022-09-02T18:47:24.983Z,10.45
2022-09-02T18:49:55.542Z,9.38
2022-09-02T18:52:28.298Z,7.97
2022-09-02T18:55:01.173Z,9.07
2022-09-02T18:57:40.786Z,9.40
2022-09-02T19:00:11.436Z,9.63
2022-09-02T19:03:02.058Z,12.25
2022-09-02T19:05:31.475Z,10.50
2022-09-02T19:08:24.590Z,13.23
2022-09-02T19:11:09.609Z,16.85
2022-09-02T19:13:57.617Z,20.00
2022-09-02T19:16:36.532Z,16.63
2022-09-02T19:19:05.391Z,11.20
2022-09-02T19:21:37.574Z,10.85
2022-09-02T19:24:12.950Z,13.85
2022-09-02T19:29:15.982Z,15.05
2022-09-02T19:31:47.006Z,13.23
2022-09-02T19:34:16.629Z,12.52
2022-09-02T19:36:47.192Z,8.82
2022-09-02T19:39:15.700Z,8.75
2022-09-02T19:41:43.090Z,11.30
2022-09-02T19:44:12.952Z,11.13
2022-09-02T19:47:30.800Z,11.95
2022-09-02T19:49:30.708Z,11.43
2022-09-02T19:52:02.872Z,12.30
2022-09-02T19:54:31.648Z,12.85
2022-09-02T19:57:01.302Z,13.07
2022-09-02T19:59:29.238Z,8.30
2022-09-02T20:01:57.743Z,10.75
2022-09-02T20:04:25.499Z,10.32
2022-09-02T20:06:59.062Z,8.95
2022-09-02T20:09:29.102Z,27.25
2022-09-02T20:11:57.765Z,54.38
2022-09-02T20:14:29.010Z,5.05
2022-09-02T20:17:00.794Z,6.72
2022-09-02T20:19:28.294Z,5.43
2022-09-02T20:21:57.861Z,5.05
2022-09-02T20:24:30.122Z,6.78
2022-09-02T20:27:14.503Z,7.53
2022-09-02T20:29:47.937Z,8.05
2022-09-02T20:32:40.593Z,5.95
2022-09-02T20:35:27.927Z,6.07
2022-09-02T20:38:26.873Z,6.82
2022-09-02T20:41:15.442Z,6.18
2022-09-02T20:44:23.657Z,4.65
2022-09-02T20:47:32.776Z,5.57
2022-09-02T20:50:26.949Z,6.00
2022-09-02T20:52:54.654Z,4.72
2022-09-02T20:55:39.382Z,6.28
2022-09-02T20:58:25.466Z,4.40
2022-09-02T21:00:59.339Z,5.78
2022-09-02T21:03:37.245Z,4.28
2022-09-02T21:06:04.816Z,6.65
2022-09-02T21:08:39.228Z,4.80
2022-09-02T21:11:14.693Z,6.28
2022-09-02T21:14:01.510Z,6.80
2022-09-02T21:16:35.539Z,6.63
2022-09-02T21:19:14.422Z,6.93
2022-09-02T21:21:49.604Z,5.53
2022-09-02T21:24:28.719Z,5.30
2022-09-02T21:27:03.938Z,5.00
2022-09-02T21:29:59.047Z,6.38
2022-09-02T21:32:33.544Z,6.07
2022-09-02T21:35:06.791Z,5.97
2022-09-02T21:37:37.709Z,6.93
2022-09-02T21:40:17.009Z,6.47
2022-09-02T21:43:12.749Z,6.40
2022-09-02T21:45:55.009Z,7.68
2022-09-02T21:48:48.126Z,8.48
2022-09-02T21:51:44.963Z,7.22
2022-09-02T21:54:44.045Z,6.72
2022-09-02T21:57:44.388Z,6.80
2022-09-02T22:00:16.635Z,10.88
2022-09-02T22:02:52.878Z,8.55
2022-09-02T22:05:25.908Z,9.10
2022-09-02T22:08:21.968Z,8.85
2022-09-02T22:13:18.398Z,10.55
2022-09-02T22:15:58.235Z,10.93
2022-09-02T22:18:48.115Z,6.43
2022-09-02T22:21:28.910Z,6.20
2022-09-02T22:23:56.851Z,7.70
2022-09-02T22:26:41.743Z,7.32
2022-09-02T22:29:18.756Z,8.30
2022-09-02T22:31:48.795Z,9.18
2022-09-02T22:34:19.226Z,8.15
2022-09-02T22:36:58.702Z,7.88
2022-09-02T22:39:38.092Z,7.50
2022-09-02T22:42:31.531Z,8.63
2022-09-02T22:45:27.872Z,7.85
2022-09-02T22:48:35.006Z,9.27
2022-09-02T22:51:25.847Z,8.90
2022-09-02T22:53:54.654Z,8.63
2022-09-02T22:56:42.692Z,8.15
2022-09-02T22:59:19.070Z,5.35
2022-09-02T23:02:21.841Z,4.88
2022-09-02T23:05:36.508Z,5.53
2022-09-02T23:08:06.956Z,5.53
2022-09-02T23:10:39.660Z,5.35
2022-09-02T23:13:38.704Z,4.72
2022-09-02T23:16:23.799Z,4.65
2022-09-02T23:19:18.354Z,5.60
2022-09-02T23:21:55.804Z,4.93
2022-09-02T23:24:46.487Z,4.60
2022-09-02T23:28:04.981Z,4.85
2022-09-02T23:30:32.660Z,6.18
2022-09-02T23:33:18.015Z,4.53
2022-09-02T23:36:14.481Z,5.28
2022-09-02T23:38:52.021Z,7.25
2022-09-02T23:41:20.564Z,4.82
2022-09-02T23:43:48.223Z,6.40
2022-09-02T23:46:31.250Z,4.20
2022-09-02T23:49:25.091Z,5.03
2022-09-02T23:52:08.187Z,4.90
2022-09-02T23:55:04.862Z,6.10
2022-09-02T23:57:52.371Z,6.13
